createdAt,value
2018-12-19T00:00:16.070Z,-21048.32
2018-12-19T00:02:43.474Z,-21052.32
2018-12-19T00:05:10.877Z,-21054.46
2018-12-19T00:07:38.267Z,-21047.89
2018-12-19T00:10:05.716Z,-21042.47
2018-12-19T00:12:33.113Z,-21056.17
2018-12-19T00:15:00.496Z,-21049.75
2018-12-19T00:17:27.902Z,-21055.32
2018-12-19T00:19:55.311Z,-21058.74
2018-12-19T00:22:22.790Z,-21049.75
2018-12-19T00:24:50.201Z,-21056.17
2018-12-19T00:27:17.588Z,-21052.75
2018-12-19T00:29:44.977Z,-21037.48
2018-12-19T00:32:12.366Z,-21053.60
2018-12-19T00:34:39.763Z,-21046.04
2018-12-19T00:37:07.418Z,-21059.46
2018-12-19T00:39:34.833Z,-21055.60
2018-12-19T00:42:02.217Z,-21040.90
2018-12-19T00:44:29.636Z,-21050.89
2018-12-19T00:46:57.027Z,-21033.62
2018-12-19T00:49:24.442Z,-21052.46
2018-12-19T00:51:51.848Z,-21050.75
2018-12-19T00:54:19.261Z,-21072.00
2018-12-19T00:56:46.774Z,-21070.87
2018-12-19T00:59:14.230Z,-21070.58
2018-12-19T01:01:41.643Z,-21051.04
2018-12-19T01:04:09.018Z,-21049.89
2018-12-19T01:06:36.461Z,-21054.32
2018-12-19T01:09:06.049Z,-21071.15
2018-12-19T01:11:33.440Z,-21064.02
2018-12-19T01:14:00.844Z,-21055.46
2018-12-19T01:16:28.326Z,-21056.46
2018-12-19T01:18:55.714Z,-21061.31
2018-12-19T01:21:23.097Z,-21063.16
2018-12-19T01:23:50.472Z,-21066.44
2018-12-19T01:26:17.881Z,-21071.58
2018-12-19T01:28:45.275Z,-21071.15
2018-12-19T01:31:12.706Z,-21072.43
2018-12-19T01:33:40.094Z,-21067.16
2018-12-19T01:36:07.533Z,-21059.46
2018-12-19T01:38:35.030Z,-21057.32
2018-12-19T01:41:02.414Z,-21054.75
2018-12-19T01:43:29.834Z,-21066.87
2018-12-19T01:45:57.308Z,-21067.44
2018-12-19T01:48:24.694Z,-21066.44
2018-12-19T01:50:52.114Z,-21054.32
2018-12-19T01:53:19.542Z,-21062.45
2018-12-19T01:55:47.482Z,-21055.89
2018-12-19T01:58:14.885Z,-21069.73
2018-12-19T02:00:42.344Z,-21045.61
2018-12-19T02:03:09.825Z,-21060.74
2018-12-19T02:05:37.225Z,-21055.03
2018-12-19T02:08:04.626Z,-21056.46
2018-12-19T02:10:32.023Z,-21050.04
2018-12-19T02:12:59.514Z,-21070.44
2018-12-19T02:15:26.922Z,-21067.01
2018-12-19T02:17:54.301Z,-21046.75
2018-12-19T02:20:22.001Z,-21071.01
2018-12-19T02:22:49.385Z,-21064.73
2018-12-19T02:25:16.780Z,-21063.02
2018-12-19T02:27:44.177Z,-21056.74
2018-12-19T02:30:11.571Z,-21067.59
2018-12-19T02:32:39.038Z,-21063.02
2018-12-19T02:35:06.552Z,-21049.89
2018-12-19T02:37:33.957Z,-21050.61
2018-12-19T02:40:01.358Z,-21068.73
2018-12-19T02:42:28.753Z,-21057.17
2018-12-19T02:44:56.155Z,-21057.60
2018-12-19T02:47:23.656Z,-21057.03
2018-12-19T02:49:51.124Z,-21057.74
2018-12-19T02:52:18.512Z,-21061.45
2018-12-19T02:54:45.925Z,-21068.58
2018-12-19T02:57:13.326Z,-21059.60
2018-12-19T02:59:40.827Z,-21057.46
2018-12-19T03:02:08.311Z,-21073.43
2018-12-19T03:04:35.774Z,-21068.73
2018-12-19T03:07:03.170Z,-21069.30
2018-12-19T03:09:30.563Z,-21064.16
2018-12-19T03:11:58.078Z,-21056.46
2018-12-19T03:14:25.471Z,-21069.16
2018-12-19T03:16:52.846Z,-21068.58
2018-12-19T03:19:20.255Z,-21063.59
2018-12-19T03:21:47.668Z,-21055.89
2018-12-19T03:24:15.136Z,-21069.58
2018-12-19T03:26:42.517Z,-21059.31
2018-12-19T03:29:09.976Z,-21047.89
2018-12-19T03:31:37.368Z,-21054.03
2018-12-19T03:34:04.756Z,-21058.03
2018-12-19T03:36:32.217Z,-21053.32
2018-12-19T03:38:59.625Z,-21058.31
2018-12-19T03:41:27.365Z,-21065.59
2018-12-19T03:43:54.746Z,-21072.86
2018-12-19T03:46:22.141Z,-21069.44
2018-12-19T03:48:55.066Z,-21078.43
2018-12-19T03:51:22.469Z,-21072.72
2018-12-19T03:53:49.918Z,-21057.17
2018-12-19T03:56:17.317Z,-21054.17
2018-12-19T03:58:44.716Z,-21052.46
2018-12-19T04:01:12.099Z,-21057.46
2018-12-19T04:03:39.577Z,-21071.44
2018-12-19T04:06:06.966Z,-21054.17
2018-12-19T04:08:34.397Z,-21063.02
2018-12-19T04:11:01.959Z,-21061.45
2018-12-19T04:13:29.341Z,-21066.73
2018-12-19T04:15:56.733Z,-21063.02
2018-12-19T04:18:24.136Z,-21068.16
2018-12-19T04:20:51.525Z,-21055.03
2018-12-19T04:23:18.928Z,-21052.75
2018-12-19T04:25:47.954Z,-21066.87
2018-12-19T04:28:15.436Z,-21074.57
2018-12-19T04:30:42.820Z,-21066.16
2018-12-19T04:33:10.467Z,-21062.88
2018-12-19T04:35:38.588Z,-21065.02
2018-12-19T04:38:06.046Z,-21067.30
2018-12-19T04:40:33.443Z,-21065.59
2018-12-19T04:43:00.835Z,-21062.73
2018-12-19T04:45:28.220Z,-21071.29
2018-12-19T04:47:55.629Z,-21069.01
2018-12-19T04:50:23.119Z,-21070.73
2018-12-19T04:52:50.529Z,-21059.31
2018-12-19T04:55:17.957Z,-21056.17
2018-12-19T04:57:45.388Z,-21057.89
2018-12-19T05:00:12.793Z,-21064.02
2018-12-19T05:02:40.281Z,-21066.73
2018-12-19T05:05:07.665Z,-21060.17
2018-12-19T05:07:35.133Z,-21058.74
2018-12-19T05:10:02.794Z,-21072.29
2018-12-19T05:12:30.266Z,-21071.01
2018-12-19T05:14:57.677Z,-21092.82
2018-12-19T05:17:25.096Z,-21068.73
2018-12-19T05:19:52.870Z,-21073.00
2018-12-19T05:22:20.257Z,-21067.01
2018-12-19T05:24:47.657Z,-21056.32
2018-12-19T05:27:15.059Z,-21067.73
2018-12-19T05:29:42.445Z,-21061.31
2018-12-19T05:32:09.837Z,-21056.17
2018-12-19T05:34:37.230Z,-21069.01
2018-12-19T05:37:04.667Z,-21083.13
2018-12-19T05:39:32.056Z,-21063.73
2018-12-19T05:41:59.439Z,-20262.96
2018-12-19T05:44:26.833Z,34669.70
2018-12-19T05:46:54.220Z,35305.14
2018-12-19T05:49:21.613Z,28926.50
2018-12-19T05:51:48.992Z,29092.36
2018-12-19T05:54:16.385Z,8717.41
2018-12-19T05:56:43.786Z,8490.87
2018-12-19T05:59:11.722Z,5062.82
2018-12-19T06:01:39.109Z,3673.32
2018-12-19T06:04:06.538Z,-15965.74
2018-12-19T06:06:33.983Z,-18620.16
2018-12-19T06:09:01.377Z,-17467.61
2018-12-19T06:11:28.852Z,-21055.03
2018-12-19T06:13:56.277Z,-21076.14
2018-12-19T06:16:23.680Z,-21067.16
2018-12-19T06:18:51.063Z,-21069.44
2018-12-19T06:21:18.468Z,-21068.01
2018-12-19T06:23:45.866Z,-21062.45
2018-12-19T06:26:13.275Z,-11004.47
2018-12-19T06:28:40.650Z,-6827.09
2018-12-19T06:31:08.149Z,-21080.41
2018-12-19T06:33:36.305Z,-21082.84
2018-12-19T06:36:03.715Z,-21090.97
2018-12-19T06:38:31.114Z,-21081.41
2018-12-19T06:40:58.582Z,-14213.46
2018-12-19T06:43:25.973Z,-8360.54
2018-12-19T06:45:53.357Z,-17250.72
2018-12-19T06:48:20.773Z,-21093.68
2018-12-19T06:50:48.145Z,-15523.13
2018-12-19T06:53:15.530Z,14293.98
2018-12-19T06:55:42.921Z,1304.74
2018-12-19T06:58:10.302Z,-14433.98
2018-12-19T07:00:37.696Z,-21085.70
2018-12-19T07:03:05.157Z,-21092.68
2018-12-19T07:05:32.582Z,-21081.70
2018-12-19T07:07:59.949Z,-21094.81
2018-12-19T07:10:27.345Z,-21077.43
2018-12-19T07:12:54.758Z,-21081.27
2018-12-19T07:15:22.238Z,-21085.13
2018-12-19T07:17:49.677Z,-21080.99
2018-12-19T07:20:17.074Z,-21083.27
2018-12-19T07:22:44.474Z,-21091.26
2018-12-19T07:25:11.863Z,-21082.56
2018-12-19T07:27:39.327Z,-21096.81
2018-12-19T07:30:07.740Z,-21088.97
2018-12-19T07:32:35.137Z,-21082.41
2018-12-19T07:35:02.563Z,-21082.41
2018-12-19T07:37:30.054Z,-21082.98
2018-12-19T07:39:57.514Z,-21091.83
2018-12-19T07:42:24.924Z,-21092.11
2018-12-19T07:44:52.311Z,-21091.97
2018-12-19T07:47:19.699Z,-21090.97
2018-12-19T07:49:47.210Z,-21092.96
2018-12-19T07:52:14.678Z,-21103.36
2018-12-19T07:54:42.067Z,-21101.23
2018-12-19T07:57:09.468Z,-21103.79
2018-12-19T07:59:36.866Z,-21087.55
2018-12-19T08:02:04.313Z,-21080.56
2018-12-19T08:04:32.082Z,-21095.24
2018-12-19T08:06:59.501Z,-21093.39
2018-12-19T08:09:26.998Z,-21091.40
2018-12-19T08:11:54.379Z,-21090.83
2018-12-19T08:14:21.781Z,-21093.11
2018-12-19T08:16:49.201Z,-21096.24
2018-12-19T08:19:16.682Z,-21094.96
2018-12-19T08:21:44.082Z,-21095.81
2018-12-19T08:24:11.508Z,-21099.94
2018-12-19T08:26:38.900Z,-21101.66
2018-12-19T08:29:06.309Z,-21105.79
2018-12-19T08:31:33.785Z,-21093.68
2018-12-19T08:34:01.247Z,-21105.07
2018-12-19T08:36:28.658Z,-21084.98
2018-12-19T08:38:56.070Z,-21097.67
2018-12-19T08:41:23.453Z,-21087.13
2018-12-19T08:43:50.852Z,-21085.41
2018-12-19T08:46:18.247Z,-21084.13
2018-12-19T08:48:45.675Z,-21085.13
2018-12-19T08:51:13.150Z,-21089.26
2018-12-19T08:53:40.560Z,-21087.41
2018-12-19T08:56:07.976Z,-21084.70
2018-12-19T08:58:35.380Z,-21089.26
2018-12-19T09:01:02.793Z,-21090.11
2018-12-19T09:03:30.200Z,-21087.84
2018-12-19T09:05:57.589Z,-21090.11
2018-12-19T09:08:24.987Z,-21088.27
2018-12-19T09:10:52.476Z,-21085.27
2018-12-19T09:13:19.887Z,-21085.41
2018-12-19T09:15:50.094Z,-21093.54
2018-12-19T09:18:18.201Z,-21095.67
2018-12-19T09:20:46.502Z,-21099.80
2018-12-19T09:23:14.301Z,-21101.80
2018-12-19T09:25:41.706Z,-21088.55
2018-12-19T09:28:09.249Z,-21101.80
2018-12-19T09:30:36.624Z,-21106.07
2018-12-19T09:33:04.048Z,-21098.09
2018-12-19T09:35:31.442Z,-21105.22
2018-12-19T09:37:58.847Z,-21111.62
2018-12-19T09:40:26.248Z,-21101.94
2018-12-19T09:42:53.750Z,-21100.09
2018-12-19T09:45:21.165Z,-21104.08
2018-12-19T09:47:48.646Z,-21108.35
2018-12-19T09:50:16.076Z,-21113.34
2018-12-19T09:52:43.539Z,-21111.48
2018-12-19T09:55:10.937Z,-21107.92
2018-12-19T09:57:38.695Z,-21108.06
2018-12-19T10:00:10.560Z,-21113.34
2018-12-19T10:02:37.961Z,-21109.06
2018-12-19T10:05:05.348Z,-21106.21
2018-12-19T10:07:32.816Z,-21111.62
2018-12-19T10:10:00.233Z,-21109.49
2018-12-19T10:12:27.626Z,-21104.36
2018-12-19T10:14:55.039Z,-21118.88
2018-12-19T10:17:22.437Z,-21109.20
2018-12-19T10:19:49.837Z,-21113.48
2018-12-19T10:31:30.658Z,-21122.87
2018-12-19T10:33:58.057Z,-21128.85
2018-12-19T10:36:31.166Z,-20997.26
2018-12-19T10:38:58.585Z,-17173.87
2018-12-19T10:41:26.055Z,-10004.71
2018-12-19T10:43:53.439Z,780.28
2018-12-19T10:46:20.853Z,-14025.80
2018-12-19T10:48:48.237Z,-17523.84
2018-12-19T10:51:15.998Z,-13612.04
2018-12-19T10:53:43.409Z,-21132.83
2018-12-19T10:56:10.874Z,-21134.11
2018-12-19T10:58:38.269Z,-17871.48
2018-12-19T11:01:06.830Z,-18768.93
2018-12-19T11:03:34.221Z,-21134.68
2018-12-19T11:06:01.622Z,-18899.34
2018-12-19T11:08:29.041Z,-21140.37
2018-12-19T11:10:56.438Z,-21136.53
2018-12-19T11:13:23.934Z,-21147.62
2018-12-19T11:15:51.807Z,-18821.16
2018-12-19T11:18:19.199Z,-21130.13
2018-12-19T11:20:46.654Z,-20725.86
2018-12-19T11:23:14.061Z,-21141.23
2018-12-19T11:25:41.473Z,-21130.55
2018-12-19T11:28:08.829Z,-6050.15
2018-12-19T11:30:36.230Z,-13129.56
2018-12-19T11:33:03.640Z,3845.17
2018-12-19T11:35:31.035Z,-1043.50
2018-12-19T11:37:58.402Z,14719.45
2018-12-19T11:40:25.821Z,20687.63
2018-12-19T11:42:53.250Z,12134.04
2018-12-19T11:45:20.617Z,15632.85
2018-12-19T11:47:48.025Z,15986.90
2018-12-19T11:50:15.398Z,15192.63
2018-12-19T11:52:42.808Z,15462.98
2018-12-19T11:55:10.205Z,18098.88
2018-12-19T11:57:37.651Z,14996.25
2018-12-19T12:00:07.132Z,7963.72
2018-12-19T12:02:34.530Z,1909.01
2018-12-19T12:05:02.030Z,3133.43
2018-12-19T12:07:29.434Z,-2322.14
2018-12-19T12:09:56.853Z,-8780.50
2018-12-19T12:12:24.256Z,-11574.31
2018-12-19T12:14:51.685Z,-13721.23
2018-12-19T12:17:19.206Z,-19125.66
2018-12-19T12:19:46.624Z,-20817.61
2018-12-19T12:22:14.021Z,-20814.25
2018-12-19T12:24:41.508Z,-21163.26
2018-12-19T12:27:08.901Z,-21171.21
2018-12-19T12:29:36.308Z,-21161.41
2018-12-19T12:32:03.788Z,-20999.96
2018-12-19T12:34:31.158Z,-21157.86
2018-12-19T12:36:58.621Z,-17461.65
2018-12-19T12:39:26.116Z,-18749.38
2018-12-19T12:41:53.525Z,-20836.07
2018-12-19T12:44:21.005Z,-19350.22
2018-12-19T12:46:48.424Z,-13542.48
2018-12-19T12:49:15.825Z,-16405.50
2018-12-19T12:51:43.255Z,-15626.66
2018-12-19T12:54:10.798Z,-12265.72
2018-12-19T12:56:38.184Z,-16289.83
2018-12-19T12:59:05.592Z,-21178.03
2018-12-19T13:01:33.390Z,-21166.38
2018-12-19T13:04:00.932Z,-19712.37
2018-12-19T13:06:28.357Z,-15816.95
2018-12-19T13:08:55.845Z,-15014.63
2018-12-19T13:11:23.253Z,-17343.88
2018-12-19T13:13:50.661Z,-21170.36
2018-12-19T13:16:18.064Z,-19712.54
2018-12-19T13:18:45.571Z,-19722.85
2018-12-19T13:21:12.942Z,-20183.14
2018-12-19T13:23:40.377Z,-17656.61
2018-12-19T13:26:07.764Z,-21162.83
2018-12-19T13:28:35.184Z,-15189.68
2018-12-19T13:31:02.592Z,-17573.57
2018-12-19T13:33:30.005Z,-21172.28
2018-12-19T13:35:57.417Z,-21165.53
2018-12-19T13:38:24.897Z,-21175.75
2018-12-19T13:40:52.300Z,-21181.44
2018-12-19T13:43:19.740Z,-21181.29
2018-12-19T13:45:47.270Z,-21196.49
2018-12-19T13:48:15.086Z,-21191.52
2018-12-19T13:50:42.502Z,-21161.41
2018-12-19T13:53:09.925Z,-21169.08
2018-12-19T13:55:37.348Z,-21169.65
2018-12-19T13:58:07.125Z,-21184.85
2018-12-19T14:00:34.153Z,-21180.44
2018-12-19T14:03:01.568Z,-21168.65
2018-12-19T14:05:28.988Z,-21156.72
2018-12-19T14:07:56.419Z,-21160.27
2018-12-19T14:10:23.821Z,-21157.71
2018-12-19T14:12:51.230Z,-21144.35
2018-12-19T14:15:18.641Z,-21157.71
2018-12-19T14:17:46.051Z,-21167.80
2018-12-19T14:20:13.459Z,-21165.96
2018-12-19T14:22:40.875Z,-21173.77
2018-12-19T14:25:08.339Z,-21169.37
2018-12-19T14:27:36.826Z,-21174.62
2018-12-19T14:30:07.683Z,-19647.59
2018-12-19T14:32:38.019Z,-20851.10
2018-12-19T14:35:05.594Z,-18928.31
2018-12-19T14:37:32.997Z,-14335.88
2018-12-19T14:40:00.424Z,-21158.42
2018-12-19T14:42:27.826Z,-21160.13
2018-12-19T14:44:55.397Z,-12843.27
2018-12-19T14:47:22.800Z,-19880.62
2018-12-19T14:49:50.210Z,-15558.86
2018-12-19T14:52:17.677Z,-5475.54
2018-12-19T14:54:45.074Z,-9044.64
2018-12-19T14:57:15.273Z,-12127.18
2018-12-19T14:59:44.896Z,-21163.40
2018-12-19T15:02:12.394Z,-21174.62
2018-12-19T15:04:39.837Z,-20944.04
2018-12-19T15:07:07.239Z,-19756.23
2018-12-19T15:09:34.662Z,-11946.83
2018-12-19T15:12:02.054Z,-10602.54
2018-12-19T15:14:29.470Z,-6370.75
2018-12-19T15:16:57.045Z,-3997.06
2018-12-19T15:19:24.499Z,-17788.09
2018-12-19T15:21:51.913Z,-7974.07
2018-12-19T15:24:19.324Z,-11684.16
2018-12-19T15:26:46.729Z,-8856.27
2018-12-19T15:29:14.137Z,-15835.84
2018-12-19T15:31:41.582Z,-17676.39
2018-12-19T15:34:09.337Z,-21175.75
2018-12-19T15:36:40.479Z,-18053.58
2018-12-19T15:39:07.942Z,-13898.30
2018-12-19T15:41:35.397Z,-15003.91
2018-12-19T15:44:02.795Z,-6330.42
2018-12-19T15:46:32.852Z,-7647.88
2018-12-19T15:49:00.268Z,-10506.93
2018-12-19T15:51:27.682Z,-4665.72
2018-12-19T15:53:55.093Z,-5848.99
2018-12-19T15:56:22.572Z,-21176.61
2018-12-19T15:58:49.964Z,-21180.44
2018-12-19T16:01:17.423Z,-21163.68
2018-12-19T16:03:44.807Z,-16213.49
2018-12-19T16:06:12.283Z,-18443.59
2018-12-19T16:08:39.705Z,-18337.49
2018-12-19T16:11:07.126Z,-21180.30
2018-12-19T16:13:34.686Z,-16844.57
2018-12-19T16:16:02.342Z,-21171.92
2018-12-19T16:18:29.799Z,-17516.87
2018-12-19T16:20:57.251Z,-15574.41
2018-12-19T16:23:24.702Z,-20851.41
2018-12-19T16:25:52.093Z,-19182.90
2018-12-19T16:28:19.598Z,-21153.73
2018-12-19T16:30:46.998Z,-21162.69
2018-12-19T16:33:14.401Z,-21165.10
2018-12-19T16:35:41.835Z,-21169.93
2018-12-19T16:38:09.215Z,-21164.82
2018-12-19T16:40:36.645Z,-21167.80
2018-12-19T16:43:04.045Z,-21172.35
2018-12-19T16:45:31.485Z,-21158.71
2018-12-19T16:47:58.900Z,-21155.72
2018-12-19T16:50:26.297Z,-21157.71
2018-12-19T16:52:53.737Z,-21163.68
2018-12-19T16:55:21.146Z,-21176.75
2018-12-19T16:57:48.556Z,-21172.77
2018-12-19T17:00:15.980Z,-21167.09
2018-12-19T17:02:43.494Z,-21161.98
2018-12-19T17:05:10.888Z,-21167.80
2018-12-19T17:07:38.435Z,-21172.06
2018-12-19T17:10:06.183Z,-21147.34
2018-12-19T17:12:33.573Z,-9531.09
2018-12-19T17:15:01.002Z,-6175.89
2018-12-19T17:17:28.516Z,-11318.62
2018-12-19T17:19:56.017Z,-15169.02
2018-12-19T17:22:23.441Z,-16070.06
2018-12-19T17:24:50.887Z,-17275.62
2018-12-19T17:27:18.293Z,-12926.24
2018-12-19T17:29:45.740Z,-13263.42
2018-12-19T17:32:13.330Z,-15776.08
2018-12-19T17:34:40.731Z,-11120.64
2018-12-19T17:37:08.166Z,-19300.25
2018-12-19T17:39:35.577Z,-11062.18
2018-12-19T17:42:02.973Z,-16732.36
2018-12-19T17:44:30.448Z,-13947.20
2018-12-19T17:46:58.587Z,-17335.91
2018-12-19T17:49:26.073Z,-17125.29
2018-12-19T17:51:53.558Z,-8297.71
2018-12-19T17:54:21.573Z,-16561.27
2018-12-19T17:56:49.018Z,-12956.73
2018-12-19T17:59:16.420Z,-13141.08
2018-12-19T18:01:43.852Z,-12591.87
2018-12-19T18:04:11.482Z,-12533.58
2018-12-19T18:06:39.251Z,-17256.84
2018-12-19T18:09:06.681Z,-18139.83
2018-12-19T18:11:34.133Z,-11777.08
2018-12-19T18:14:02.021Z,-10893.35
2018-12-19T18:16:29.405Z,-14556.81
2018-12-19T18:18:56.806Z,-14223.24
2018-12-19T18:21:24.233Z,-16684.82
2018-12-19T18:23:51.661Z,-17307.44
2018-12-19T18:26:19.095Z,-16745.46
2018-12-19T18:28:46.513Z,-16480.53
2018-12-19T18:31:14.004Z,-16152.91
2018-12-19T18:33:42.199Z,-14493.14
2018-12-19T18:36:09.596Z,-18087.26
2018-12-19T18:38:36.996Z,-16449.49
2018-12-19T18:41:04.398Z,-16979.15
2018-12-19T18:43:31.825Z,-14789.95
2018-12-19T18:45:59.304Z,-18078.49
2018-12-19T18:48:26.802Z,-18394.76
2018-12-19T18:50:54.197Z,-17670.42
2018-12-19T18:53:21.626Z,-13955.76
2018-12-19T18:55:49.024Z,-17935.71
2018-12-19T18:58:17.155Z,-19514.20
2018-12-19T19:00:47.197Z,-19457.98
2018-12-19T19:03:15.239Z,-17039.49
2018-12-19T19:05:42.777Z,-19473.38
2018-12-19T19:08:10.244Z,-18749.29
2018-12-19T19:10:37.779Z,-16768.42
2018-12-19T19:13:05.236Z,-18692.06
2018-12-19T19:15:32.648Z,-15534.63
2018-12-19T19:18:00.414Z,-14749.70
2018-12-19T19:20:27.833Z,-13679.86
2018-12-19T19:22:55.249Z,-14688.75
2018-12-19T19:25:22.734Z,-17786.73
2018-12-19T19:27:50.143Z,-16823.53
2018-12-19T19:30:17.576Z,-17211.53
2018-12-19T19:32:45.813Z,-16501.86
2018-12-19T19:35:13.205Z,-19649.87
2018-12-19T19:37:40.611Z,-19315.38
2018-12-19T19:40:09.162Z,-20459.02
2018-12-19T19:42:36.594Z,-19612.76
2018-12-19T19:45:05.405Z,-21146.91
2018-12-19T19:47:32.844Z,-20771.93
2018-12-19T19:50:00.357Z,-19408.52
2018-12-19T19:52:27.772Z,-17368.32
2018-12-19T19:54:55.176Z,-16584.40
2018-12-19T19:57:22.603Z,-17890.23
2018-12-19T19:59:50.024Z,-15592.60
2018-12-19T20:02:17.425Z,-16808.90
2018-12-19T20:04:44.848Z,-18053.64
2018-12-19T20:07:12.294Z,-19748.20
2018-12-19T20:09:39.778Z,-19783.56
2018-12-19T20:12:07.262Z,-18673.97
2018-12-19T20:14:34.691Z,-19336.82
2018-12-19T20:17:02.349Z,-16846.56
2018-12-19T20:19:29.790Z,-16261.13
2018-12-19T20:21:57.192Z,-17178.25
2018-12-19T20:24:24.924Z,-21139.09
2018-12-19T20:26:52.355Z,-21143.93
2018-12-19T20:29:19.755Z,-21047.99
2018-12-19T20:31:47.316Z,-21132.68
2018-12-19T20:34:14.761Z,-20653.88
2018-12-19T20:36:42.131Z,-20230.81
2018-12-19T20:39:09.604Z,-21132.54
2018-12-19T20:41:37.042Z,-21131.84
2018-12-19T20:44:04.461Z,-20499.40
2018-12-19T20:46:31.899Z,-19350.85
2018-12-19T20:48:59.315Z,-18738.50
2018-12-19T20:51:26.751Z,-20632.24
2018-12-19T20:53:54.153Z,-20442.20
2018-12-19T20:56:21.720Z,-21131.41
2018-12-19T20:58:49.301Z,-20993.45
2018-12-19T21:01:16.763Z,-21125.15
2018-12-19T21:03:45.321Z,-21135.25
2018-12-19T21:06:12.830Z,-21130.55
2018-12-19T21:08:40.285Z,-21138.66
2018-12-19T21:11:07.714Z,-21134.54
2018-12-19T21:13:35.499Z,-21115.04
2018-12-19T21:16:02.892Z,-21130.55
2018-12-19T21:18:35.980Z,-21131.84
2018-12-19T21:21:03.414Z,-21129.27
2018-12-19T21:23:33.345Z,-21130.41
2018-12-19T21:26:01.542Z,-21121.44
2018-12-19T21:28:29.066Z,-21133.97
2018-12-19T21:30:56.678Z,-21123.72
2018-12-19T21:33:24.169Z,-21126.71
2018-12-19T21:35:51.590Z,-21135.81
2018-12-19T21:38:19.037Z,-21136.81
2018-12-19T21:40:46.536Z,-21142.36
2018-12-19T21:43:13.987Z,-21131.69
2018-12-19T21:45:41.506Z,-21133.11
2018-12-19T21:48:08.934Z,-21128.99
2018-12-19T21:50:36.379Z,-21125.15
2018-12-19T21:53:03.895Z,-21116.32
2018-12-19T21:55:31.395Z,-21118.17
2018-12-19T21:57:58.838Z,-21115.61
2018-12-19T22:00:27.575Z,-21128.70
2018-12-19T22:02:55.103Z,-21122.87
2018-12-19T22:05:22.628Z,-21129.13
2018-12-19T22:07:50.121Z,-21125.15
2018-12-19T22:10:17.524Z,-21119.17
2018-12-19T22:12:44.968Z,-21126.71
2018-12-19T22:15:12.478Z,-21125.57
2018-12-19T22:17:45.628Z,-21126.71
2018-12-19T22:20:13.116Z,-21125.71
2018-12-19T22:22:40.571Z,-21134.25
2018-12-19T22:25:07.969Z,-21125.00
2018-12-19T22:27:47.210Z,-21135.81
2018-12-19T22:30:14.802Z,-21127.85
2018-12-19T22:32:42.371Z,-21136.24
2018-12-19T22:35:09.849Z,-21128.42
2018-12-19T22:37:37.264Z,-21129.84
2018-12-19T22:40:07.435Z,-21133.97
2018-12-19T22:42:41.660Z,-21135.39
2018-12-19T22:45:09.196Z,-21130.98
2018-12-19T22:47:36.672Z,-21127.28
2018-12-19T22:50:06.149Z,-21129.70
2018-12-19T22:52:33.605Z,-21139.23
2018-12-19T22:55:04.934Z,-21132.12
2018-12-19T22:57:37.941Z,-21128.99
2018-12-19T23:00:11.382Z,-21134.54
2018-12-19T23:02:46.678Z,-21136.81
2018-12-19T23:05:16.126Z,-21137.24
2018-12-19T23:07:43.548Z,-21131.12
2018-12-19T23:10:11.689Z,-21127.42
2018-12-19T23:12:40.283Z,-21139.23
2018-12-19T23:15:08.213Z,-21125.86
2018-12-19T23:17:39.586Z,-21130.27
2018-12-19T23:20:09.476Z,-21127.42
2018-12-19T23:22:36.990Z,-21127.42
2018-12-19T23:25:05.276Z,-20185.04
2018-12-19T23:27:32.869Z,-18503.69
2018-12-19T23:30:00.281Z,-21118.03
2018-12-19T23:32:28.698Z,-21119.88
2018-12-19T23:34:56.504Z,-21120.73
2018-12-19T23:37:24.103Z,-21126.43
2018-12-19T23:39:51.519Z,-21124.15
2018-12-19T23:42:19.051Z,-21155.45
2018-12-19T23:44:46.611Z,-21123.72
2018-12-19T23:47:14.034Z,-21130.13
2018-12-19T23:49:41.446Z,-21121.87
2018-12-19T23:52:08.980Z,-21116.75
2018-12-19T23:54:36.490Z,-21121.73
2018-12-19T23:57:04.014Z,-21127.99
2018-12-19T23:59:31.478Z,-21125.71
